Time;durP1;ratioP1;P1;durP2;ratioP2;P2;SDS_P1;SDS_P2;PMS_P1;PMS_P2;Temp;Humidity;BMP_temperature;BMP_pressure;BME280_temperature;BME280_humidity;BME280_pressure;Samples;Min_cycle;Max_cycle;Signal;HPM_P1;HPM_P2
2021/09/02 07:35:52;;;;;;;12.60;3.63;;;20.70;65.40;;;;;;5109379;27;20437;-60
2021/09/02 07:38:17;;;;;;;13.75;3.38;;;21.10;65.00;;;;;;5111002;28;20693;-59
2021/09/02 07:40:43;;;;;;;6.53;2.88;;;21.10;64.70;;;;;;5108874;28;20057;-65
2021/09/02 07:43:08;;;;;;;6.53;2.67;;;21.20;64.40;;;;;;5110009;28;20331;-65
2021/09/02 07:45:34;;;;;;;7.95;2.75;;;21.20;64.30;;;;;;5107472;28;20045;-65
2021/09/02 07:48:00;;;;;;;5.15;2.15;;;21.20;63.90;;;;;;5110028;28;20330;-62
2021/09/02 07:50:25;;;;;;;8.27;2.58;;;21.30;64.00;;;;;;5109264;28;20044;-65
2021/09/02 07:52:51;;;;;;;7.57;2.50;;;21.30;64.10;;;;;;5108326;28;20039;-65
2021/09/02 07:55:17;;;;;;;5.72;2.42;;;21.20;64.00;;;;;;5110335;28;20042;-63
2021/09/02 07:57:46;;;;;;;9.68;2.70;;;21.20;64.00;;;;;;5109860;28;20447;-65
2021/09/02 08:00:13;;;;;;;5.10;2.17;;;21.20;64.10;;;;;;5109014;28;20028;-64
2021/09/02 08:02:38;;;;;;;9.40;2.55;;;21.20;64.10;;;;;;5110185;28;20043;-65
2021/09/02 08:05:04;;;;;;;7.57;1.83;;;21.20;64.10;;;;;;5110057;28;20032;-64
2021/09/02 08:07:30;;;;;;;7.70;2.00;;;21.20;64.10;;;;;;5126385;28;20032;-65
2021/09/02 08:09:56;;;;;;;8.07;2.00;;;21.20;64.00;;;;;;5111680;28;20020;-65
2021/09/02 08:12:21;;;;;;;3.30;1.63;;;21.20;64.00;;;;;;5110774;28;20110;-64
2021/09/02 08:14:47;;;;;;;6.80;2.35;;;21.30;64.10;;;;;;5109982;28;20097;-63
2021/09/02 08:17:13;;;;;;;6.65;2.60;;;21.20;64.00;;;;;;5110448;28;20020;-63
2021/09/02 08:19:38;;;;;;;8.65;2.50;;;21.30;64.00;;;;;;5108792;28;20044;-63
2021/09/02 08:22:04;;;;;;;4.75;2.13;;;21.30;64.00;;;;;;5110065;28;20157;-63
2021/09/02 08:24:30;;;;;;;9.02;2.47;;;21.30;64.00;;;;;;5109589;28;20020;-63
2021/09/02 08:26:56;;;;;;;5.13;2.15;;;21.30;63.90;;;;;;5110925;28;20081;-64
2021/09/02 08:29:22;;;;;;;10.80;5.00;;;21.30;63.80;;;;;;5111328;28;20042;-64
2021/09/02 08:31:47;;;;;;;13.52;6.90;;;21.30;63.60;;;;;;5111777;28;20102;-65
2021/09/02 08:34:13;;;;;;;14.00;7.40;;;21.20;63.40;;;;;;5111166;28;20048;-63
2021/09/02 08:36:39;;;;;;;20.83;7.28;;;21.10;63.70;;;;;;5111659;28;20092;-64
2021/09/02 08:39:04;;;;;;;36.05;8.65;;;21.00;63.40;;;;;;5111539;28;20409;-64
2021/09/02 08:41:33;;;;;;;20.70;6.78;;;21.00;63.30;;;;;;5111318;28;20027;-63
2021/09/02 08:43:59;;;;;;;21.20;7.03;;;21.00;63.10;;;;;;5111545;28;20031;-64
2021/09/02 08:46:25;;;;;;;12.80;6.03;;;21.00;62.90;;;;;;5101231;28;20020;-65
2021/09/02 08:48:50;;;;;;;14.35;5.88;;;21.00;62.60;;;;;;5096691;28;20040;-64
2021/09/02 08:51:16;;;;;;;11.98;5.85;;;21.00;62.20;;;;;;5097824;28;20024;-66
2021/09/02 08:53:42;;;;;;;13.50;5.72;;;20.90;61.80;;;;;;5096583;28;20028;-64
2021/09/02 08:56:08;;;;;;;15.68;7.53;;;20.90;61.30;;;;;;5097462;28;20020;-64
2021/09/02 08:58:34;;;;;;;13.23;6.43;;;20.90;61.40;;;;;;5097447;28;20032;-64
2021/09/02 09:00:59;;;;;;;24.15;5.18;;;20.90;61.30;;;;;;5097712;28;20035;-64
2021/09/02 09:03:25;;;;;;;9.77;4.47;;;20.90;60.40;;;;;;5097567;28;20035;-65
2021/09/02 09:05:54;;;;;;;14.38;4.85;;;20.90;59.80;;;;;;5097368;28;20054;-64
2021/09/02 09:08:19;;;;;;;8.65;4.45;;;20.90;59.30;;;;;;5097444;28;20103;-64
2021/09/02 09:10:45;;;;;;;12.10;4.85;;;20.90;58.60;;;;;;5097527;28;20070;-65
2021/09/02 09:13:11;;;;;;;10.70;4.38;;;20.90;58.70;;;;;;5097493;28;20349;-65
2021/09/02 09:15:40;;;;;;;8.07;5.30;;;20.90;59.00;;;;;;5097120;28;20027;-64
2021/09/02 09:18:22;;;;;;;10.30;4.20;;;20.80;59.10;;;;;;5097059;28;20034;-64
2021/09/02 09:21:06;;;;;;;17.73;5.07;;;20.90;59.30;;;;;;5097078;28;20076;-64
2021/09/02 09:24:02;;;;;;;9.63;4.80;;;20.90;59.50;;;;;;5096763;28;20062;-64
2021/09/02 09:26:28;;;;;;;12.00;4.38;;;20.90;59.50;;;;;;5096863;28;20445;-65
2021/09/02 09:28:57;;;;;;;8.60;4.78;;;20.90;59.50;;;;;;5097177;28;20035;-65
2021/09/02 09:31:26;;;;;;;13.93;5.82;;;20.90;59.40;;;;;;5096721;28;20078;-64
2021/09/02 09:33:52;;;;;;;10.38;5.10;;;20.90;59.40;;;;;;5096625;28;20078;-65
2021/09/02 09:36:29;;;;;;;12.32;4.75;;;20.90;60.40;;;;;;5096997;28;20032;-64
2021/09/02 09:38:58;;;;;;;9.02;5.38;;;20.90;59.80;;;;;;5097032;28;20379;-65
2021/09/02 09:41:35;;;;;;;11.00;5.70;;;20.80;60.30;;;;;;5096589;28;20028;-64
2021/09/02 09:44:27;;;;;;;13.30;6.20;;;20.90;60.50;;;;;;5095665;28;20024;-63
2021/09/02 09:47:13;;;;;;;11.77;5.97;;;20.90;60.50;;;;;;5096654;28;20016;-64
2021/09/02 09:50:00;;;;;;;11.60;6.47;;;20.90;60.60;;;;;;5096446;28;20445;-64
2021/09/02 09:52:30;;;;;;;10.18;5.30;;;20.90;60.60;;;;;;5096635;28;20039;-64
2021/09/02 09:55:11;;;;;;;13.13;5.47;;;20.90;60.70;;;;;;5096637;28;20348;-65
2021/09/02 09:57:38;;;;;;;10.43;5.38;;;20.90;60.70;;;;;;5095445;28;20051;-66
2021/09/02 10:00:06;;;;;;;12.65;6.07;;;20.90;60.50;;;;;;5096246;28;20066;-64
2021/09/02 10:02:32;;;;;;;11.55;6.47;;;20.90;60.30;;;;;;5096162;28;20116;-66
2021/09/02 10:04:58;;;;;;;9.57;6.05;;;20.80;60.00;;;;;;5095199;28;20055;-64
2021/09/02 10:07:23;;;;;;;12.45;5.80;;;20.90;60.10;;;;;;5095156;28;20024;-64
2021/09/02 10:09:51;;;;;;;9.23;5.68;;;20.90;60.20;;;;;;5095408;28;20028;-64
2021/09/02 10:12:17;;;;;;;9.63;5.43;;;20.90;60.10;;;;;;5096196;28;20024;-65
2021/09/02 10:14:43;;;;;;;11.07;5.20;;;20.90;60.10;;;;;;5096137;28;20082;-65
2021/09/02 10:17:08;;;;;;;14.48;5.97;;;20.90;60.20;;;;;;5095789;28;20407;-64
2021/09/02 10:19:34;;;;;;;9.57;6.05;;;21.00;60.20;;;;;;5095686;28;20024;-64
2021/09/02 10:22:02;;;;;;;9.00;5.43;;;20.90;60.00;;;;;;5095983;28;20028;-63
2021/09/02 10:24:39;;;;;;;11.13;5.53;;;20.90;59.90;;;;;;5094646;28;20028;-65
2021/09/02 10:27:23;;;;;;;11.23;6.22;;;21.00;59.70;;;;;;5095849;28;20024;-66
2021/09/02 10:29:50;;;;;;;11.48;5.20;;;21.00;59.70;;;;;;5094561;28;20031;-66
2021/09/02 10:32:23;;;;;;;9.48;5.15;;;21.00;59.70;;;;;;5095505;28;20058;-64
2021/09/02 10:34:51;;;;;;;7.55;4.82;;;21.00;59.50;;;;;;5095139;28;20498;-67
2021/09/02 10:37:36;;;;;;;10.60;5.70;;;21.10;59.60;;;;;;5095590;28;20090;-65
2021/09/02 10:40:06;;;;;;;16.58;6.38;;;21.10;59.40;;;;;;5095310;28;20023;-64
2021/09/02 10:42:52;;;;;;;34.03;7.50;;;21.10;59.30;;;;;;5095145;28;20134;-64
2021/09/02 10:45:25;;;;;;;14.75;6.00;;;21.10;59.40;;;;;;5095149;28;20028;-64
2021/09/02 10:48:01;;;;;;;12.77;6.55;;;21.20;59.60;;;;;;5095646;28;20031;-63
2021/09/02 10:50:29;;;;;;;17.05;6.38;;;21.20;59.40;;;;;;5095396;28;20042;-64
2021/09/02 10:53:14;;;;;;;14.32;6.30;;;21.20;59.70;;;;;;5095351;28;20028;-66
2021/09/02 10:55:47;;;;;;;;;;;21.20;59.40;;;;;;5095638;28;20028;-64
2021/09/02 10:58:51;;;;;;;13.65;6.68;;;21.20;59.50;;;;;;5095245;28;19903;-63
2021/09/02 11:01:24;;;;;;;9.27;5.53;;;21.30;59.40;;;;;;5094802;28;20076;-64
2021/09/02 11:03:50;;;;;;;13.15;6.38;;;21.30;59.10;;;;;;5095139;28;20027;-65
2021/09/02 11:06:16;;;;;;;14.23;6.78;;;21.30;58.70;;;;;;5095246;28;20030;-66
2021/09/02 11:08:42;;;;;;;15.25;6.80;;;21.30;58.60;;;;;;5094750;28;20374;-64
2021/09/02 11:11:16;;;;;;;35.05;6.82;;;21.30;58.40;;;;;;5094200;28;20035;-65
2021/09/02 11:13:43;;;;;;;17.90;7.13;;;21.30;58.50;;;;;;5095101;28;20028;-65
2021/09/02 11:16:09;;;;;;;27.23;6.53;;;21.30;58.50;;;;;;5094968;28;20301;-65
2021/09/02 11:18:45;;;;;;;16.35;7.18;;;21.40;58.70;;;;;;5094567;28;20459;-63
2021/09/02 11:21:12;;;;;;;20.92;6.63;;;21.40;58.40;;;;;;5094632;28;20123;-64
2021/09/02 11:23:40;;;;;;;17.17;7.32;;;21.40;58.30;;;;;;5094405;28;20472;-64
2021/09/02 11:26:06;;;;;;;13.55;6.45;;;21.40;57.80;;;;;;5094882;28;20043;-63
2021/09/02 11:28:31;;;;;;;13.55;6.60;;;21.40;57.60;;;;;;5094556;28;20024;-64
2021/09/02 11:30:57;;;;;;;15.95;6.55;;;21.50;57.70;;;;;;5093473;28;20035;-64
2021/09/02 11:33:23;;;;;;;13.52;6.70;;;21.50;57.70;;;;;;5093555;28;20500;-64
2021/09/02 11:35:57;;;;;;;15.65;6.63;;;21.50;57.80;;;;;;5094200;28;20047;-64
2021/09/02 11:38:22;;;;;;;15.73;6.73;;;21.50;57.90;;;;;;5094744;28;20055;-63
2021/09/02 11:40:48;;;;;;;12.85;6.10;;;21.50;58.10;;;;;;5094703;28;20448;-65
2021/09/02 11:43:17;;;;;;;15.88;6.10;;;21.50;58.20;;;;;;5094641;28;20466;-65
2021/09/02 11:45:48;;;;;;;12.13;5.80;;;21.50;58.10;;;;;;5094279;28;20365;-64
2021/09/02 11:48:13;;;;;;;17.13;5.85;;;21.50;58.20;;;;;;5093545;28;20406;-64
2021/09/02 11:50:39;;;;;;;8.93;5.07;;;21.50;58.40;;;;;;5094221;28;20074;-64
2021/09/02 11:53:05;;;;;;;8.48;5.20;;;21.50;58.40;;;;;;5094478;28;20093;-63
2021/09/02 11:55:32;;;;;;;12.57;5.20;;;21.60;58.20;;;;;;5094465;28;20035;-63
2021/09/02 11:57:59;;;;;;;11.85;6.43;;;21.60;58.20;;;;;;5094476;28;20046;-64
2021/09/02 12:00:25;;;;;;;13.18;6.72;;;21.70;57.90;;;;;;5094154;28;20071;-64
2021/09/02 12:02:53;;;;;;;9.25;5.40;;;21.70;57.50;;;;;;5094536;28;20127;-64
2021/09/02 12:05:20;;;;;;;14.63;6.53;;;21.70;57.50;;;;;;5094028;28;20074;-64
2021/09/02 12:07:50;;;;;;;15.18;6.82;;;21.70;57.40;;;;;;5094082;28;20085;-66
2021/09/02 12:10:17;;;;;;;15.27;4.90;;;21.70;57.50;;;;;;5093195;28;20069;-63
2021/09/02 12:12:43;;;;;;;12.65;6.13;;;21.70;58.10;;;;;;5093160;28;20016;-64
2021/09/02 12:15:28;;;;;;;9.50;6.13;;;21.80;57.30;;;;;;5094166;28;20032;-64
2021/09/02 12:18:12;;;;;;;11.85;6.00;;;21.80;57.30;;;;;;5094084;28;20099;-64
2021/09/02 12:20:39;;;;;;;11.40;5.87;;;21.80;57.00;;;;;;5094323;28;20032;-64
2021/09/02 12:23:24;;;;;;;10.60;6.15;;;21.90;56.50;;;;;;5097208;28;20032;-65
2021/09/02 12:26:00;;;;;;;11.75;5.70;;;22.00;56.20;;;;;;5097941;28;20105;-64
2021/09/02 12:28:34;;;;;;;11.40;5.45;;;22.00;56.30;;;;;;5098031;28;20112;-64
2021/09/02 12:31:15;;;;;;;10.43;5.78;;;22.00;56.70;;;;;;5098092;28;20047;-65
2021/09/02 12:34:02;;;;;;;9.52;5.88;;;22.00;56.60;;;;;;5097595;28;20066;-64
2021/09/02 12:36:29;;;;;;;12.70;5.90;;;22.00;56.10;;;;;;5097471;28;20050;-63
2021/09/02 12:38:55;;;;;;;12.48;5.50;;;22.10;56.00;;;;;;5097716;28;20480;-63
2021/09/02 12:41:22;;;;;;;13.05;6.10;;;22.10;56.00;;;;;;5096440;28;20020;-64
2021/09/02 12:44:09;;;;;;;12.15;5.85;;;22.10;55.80;;;;;;5097578;28;20031;-64
2021/09/02 12:46:55;;;;;;;10.00;5.78;;;22.20;55.60;;;;;;5097325;28;20448;-63
2021/09/02 12:49:24;;;;;;;11.65;5.63;;;22.20;55.30;;;;;;5097185;28;20035;-64
2021/09/02 12:52:09;;;;;;;12.50;5.53;;;22.10;55.30;;;;;;5097588;28;20020;-65
2021/09/02 12:55:12;;;;;;;13.27;5.85;;;22.10;55.70;;;;;;5097037;28;20016;-64
2021/09/02 12:57:41;;;;;;;10.50;5.85;;;22.10;55.70;;;;;;5096867;28;20116;-64
2021/09/02 13:00:10;;;;;;;9.90;6.10;;;22.20;55.70;;;;;;5097323;28;20032;-65
2021/09/02 13:02:35;;;;;;;18.15;6.72;;;22.30;55.50;;;;;;5096218;28;20101;-64
2021/09/02 13:05:01;;;;;;;12.63;6.20;;;22.30;55.30;;;;;;5096902;28;20334;-64
2021/09/02 13:07:27;;;;;;;10.35;5.13;;;22.40;55.10;;;;;;5097126;28;20024;-64
2021/09/02 13:09:55;;;;;;;10.60;6.05;;;22.50;55.00;;;;;;5097225;28;20349;-66
2021/09/02 13:12:21;;;;;;;12.32;6.30;;;22.50;54.70;;;;;;5097045;28;20335;-64
2021/09/02 13:14:46;;;;;;;11.45;6.68;;;22.50;54.90;;;;;;5096692;28;20100;-65
2021/09/02 13:17:12;;;;;;;9.90;5.38;;;22.50;54.40;;;;;;5096755;28;20359;-64
2021/09/02 13:19:38;;;;;;;10.15;4.95;;;22.50;54.50;;;;;;5096959;28;20028;-66
2021/09/02 13:22:03;;;;;;;12.88;5.70;;;22.50;54.80;;;;;;5096616;28;20056;-64
2021/09/02 13:24:29;;;;;;;10.07;5.80;;;22.50;54.90;;;;;;5096691;28;20028;-64
2021/09/02 13:26:55;;;;;;;6.72;4.55;;;22.50;54.80;;;;;;5096831;28;20024;-65
2021/09/02 13:29:20;;;;;;;10.88;5.35;;;22.50;55.10;;;;;;5096679;28;20026;-66
2021/09/02 13:31:46;;;;;;;12.88;5.68;;;22.50;54.50;;;;;;5096356;28;20052;-66
2021/09/02 13:34:12;;;;;;;11.20;5.00;;;22.50;54.10;;;;;;5096229;28;20472;-64
2021/09/02 13:36:37;;;;;;;13.85;5.13;;;22.50;54.30;;;;;;5096357;28;20421;-63
2021/09/02 13:39:03;;;;;;;14.15;5.32;;;22.60;54.30;;;;;;5096378;28;20028;-65
2021/09/02 13:41:29;;;;;;;13.07;5.22;;;22.70;54.30;;;;;;5096306;28;20024;-64
2021/09/02 13:43:55;;;;;;;14.25;3.67;;;22.70;54.20;;;;;;5078218;28;20035;-64
2021/09/02 13:46:20;;;;;;;9.38;4.13;;;22.80;54.10;;;;;;5096543;28;20458;-63
2021/09/02 13:48:46;;;;;;;9.02;3.10;;;22.90;54.00;;;;;;5096510;28;20169;-64
2021/09/02 13:51:13;;;;;;;6.82;2.97;;;22.90;54.00;;;;;;5096435;28;20095;-66
2021/09/02 13:53:38;;;;;;;10.60;3.35;;;23.00;54.00;;;;;;5095443;28;20055;-64
2021/09/02 13:56:04;;;;;;;5.50;2.92;;;23.00;54.00;;;;;;5096239;28;20439;-64
2021/09/02 13:58:30;;;;;;;5.15;2.45;;;23.00;54.00;;;;;;5096242;28;20039;-64
2021/09/02 14:01:00;;;;;;;7.32;2.83;;;23.00;54.00;;;;;;5096032;28;20024;-64
2021/09/02 14:03:27;;;;;;;5.82;2.53;;;23.10;54.10;;;;;;5095876;28;20463;-65
2021/09/02 14:05:53;;;;;;;8.85;2.40;;;23.00;54.10;;;;;;5096057;28;20024;-66
2021/09/02 14:08:18;;;;;;;9.48;2.97;;;23.10;54.10;;;;;;5095885;28;20103;-64
2021/09/02 14:10:44;;;;;;;5.45;3.00;;;23.10;54.00;;;;;;5095827;28;20028;-64
2021/09/02 14:13:10;;;;;;;3.38;1.83;;;23.20;54.10;;;;;;5096041;28;20024;-64
2021/09/02 14:15:35;;;;;;;4.00;2.17;;;23.20;54.10;;;;;;5094833;28;20406;-64
2021/09/02 14:18:01;;;;;;;5.95;2.60;;;23.20;54.20;;;;;;5095575;28;20035;-64
2021/09/02 14:20:27;;;;;;;6.10;2.50;;;23.20;54.00;;;;;;5094481;28;20028;-64
2021/09/02 14:22:53;;;;;;;3.90;2.50;;;23.30;54.00;;;;;;5095507;28;20028;-63
2021/09/02 14:25:18;;;;;;;5.85;2.40;;;23.30;54.10;;;;;;5095318;28;20107;-65
2021/09/02 14:27:48;;;;;;;3.65;1.90;;;23.20;54.30;;;;;;5095519;28;20032;-64
2021/09/02 14:30:14;;;;;;;4.95;1.92;;;23.20;54.40;;;;;;5094633;28;20141;-63
2021/09/02 14:32:40;;;;;;;6.35;2.20;;;23.10;54.60;;;;;;5095671;28;20360;-65
2021/09/02 14:35:06;;;;;;;2.78;1.67;;;23.10;54.70;;;;;;5095316;28;20139;-64
2021/09/02 14:37:32;;;;;;;4.82;1.90;;;23.20;54.70;;;;;;5095672;28;20035;-65
2021/09/02 14:39:57;;;;;;;5.47;2.28;;;23.20;54.60;;;;;;5095438;28;20108;-65
2021/09/02 14:42:23;;;;;;;4.50;1.83;;;23.30;54.60;;;;;;5095586;28;20024;-65
2021/09/02 14:44:49;;;;;;;5.43;2.13;;;23.30;54.60;;;;;;5094968;28;20455;-64
2021/09/02 14:47:14;;;;;;;4.32;2.05;;;23.30;54.50;;;;;;5095091;28;20503;-66
2021/09/02 14:49:40;;;;;;;3.88;1.90;;;23.20;54.70;;;;;;5095177;28;20030;-63
2021/09/02 14:52:06;;;;;;;4.32;2.05;;;23.30;54.80;;;;;;5095068;28;20024;-63
2021/09/02 14:54:31;;;;;;;4.22;2.00;;;23.20;54.90;;;;;;5095282;28;20024;-64
2021/09/02 14:56:57;;;;;;;4.18;1.70;;;23.20;55.10;;;;;;5095283;28;20024;-65
2021/09/02 14:59:23;;;;;;;3.20;1.80;;;23.20;55.20;;;;;;5094336;28;20038;-64
2021/09/02 15:01:48;;;;;;;3.28;1.77;;;23.20;55.10;;;;;;5095335;28;20348;-65
2021/09/02 15:04:14;;;;;;;3.38;1.90;;;23.20;55.10;;;;;;5095299;28;20038;-64
2021/09/02 15:06:40;;;;;;;3.25;1.80;;;23.30;55.10;;;;;;5095323;28;20024;-63
2021/09/02 15:09:06;;;;;;;5.22;1.90;;;23.30;55.00;;;;;;5095097;28;20409;-64
2021/09/02 15:11:32;;;;;;;4.50;2.15;;;23.30;55.00;;;;;;5094875;28;20024;-65
2021/09/02 15:13:58;;;;;;;3.33;2.00;;;23.30;55.10;;;;;;5095244;28;20035;-64
2021/09/02 15:16:23;;;;;;;3.25;1.70;;;23.30;55.00;;;;;;5095045;28;20157;-65
2021/09/02 15:18:49;;;;;;;3.40;2.10;;;23.30;55.10;;;;;;5094903;28;20432;-63
2021/09/02 15:21:15;;;;;;;3.35;2.13;;;23.40;55.10;;;;;;5094963;28;20044;-64
2021/09/02 15:23:40;;;;;;;3.13;2.03;;;23.40;55.00;;;;;;5094751;28;20054;-63
2021/09/02 15:26:06;;;;;;;3.03;1.80;;;23.40;55.10;;;;;;5095055;28;20024;-63
2021/09/02 15:28:32;;;;;;;3.10;1.60;;;23.40;55.00;;;;;;5095089;28;20093;-65
2021/09/02 15:30:58;;;;;;;3.88;1.90;;;23.40;55.00;;;;;;5094989;28;20310;-64
2021/09/02 15:33:23;;;;;;;3.40;1.73;;;23.40;55.00;;;;;;5094988;28;20020;-64
2021/09/02 15:35:49;;;;;;;3.90;1.65;;;23.50;55.00;;;;;;5094440;28;20047;-65
2021/09/02 15:38:15;;;;;;;2.90;1.90;;;23.40;55.10;;;;;;5095022;28;20040;-64
2021/09/02 15:40:40;;;;;;;3.47;1.52;;;23.40;55.30;;;;;;5094858;28;20436;-65
2021/09/02 15:43:06;;;;;;;4.22;1.90;;;23.30;55.20;;;;;;5094907;28;20031;-63
2021/09/02 15:45:32;;;;;;;3.42;1.85;;;23.30;55.20;;;;;;5094553;28;20024;-65
2021/09/02 15:47:58;;;;;;;3.47;1.80;;;23.40;55.30;;;;;;5094701;28;20051;-64
2021/09/02 15:50:24;;;;;;;3.08;1.60;;;23.40;55.30;;;;;;5094838;28;20028;-64
2021/09/02 15:52:49;;;;;;;3.80;1.90;;;23.40;55.40;;;;;;5094093;28;20382;-64
2021/09/02 15:55:15;;;;;;;3.85;1.95;;;23.40;55.30;;;;;;5094869;28;20158;-65
2021/09/02 15:57:41;;;;;;;4.43;2.00;;;23.40;55.40;;;;;;5098458;28;20338;-65
2021/09/02 16:00:07;;;;;;;3.70;1.77;;;23.40;55.30;;;;;;5098987;28;20039;-65
2021/09/02 16:02:32;;;;;;;2.72;1.70;;;23.40;55.40;;;;;;5098517;28;20034;-65
2021/09/02 16:04:58;;;;;;;3.10;1.60;;;23.40;55.50;;;;;;5098727;28;20028;-65
2021/09/02 16:07:25;;;;;;;2.72;1.58;;;23.40;55.40;;;;;;5097401;28;20093;-63
2021/09/02 16:09:51;;;;;;;2.85;1.63;;;23.40;55.50;;;;;;5098464;28;20402;-63
2021/09/02 16:12:17;;;;;;;2.45;1.58;;;23.40;55.50;;;;;;5098439;28;20062;-65
2021/09/02 16:14:43;;;;;;;3.22;1.67;;;23.30;55.50;;;;;;5098634;28;20058;-64
2021/09/02 16:17:09;;;;;;;3.35;1.88;;;23.30;55.70;;;;;;5098378;28;20028;-64
2021/09/02 16:19:35;;;;;;;3.42;1.70;;;23.30;55.60;;;;;;5098338;28;20133;-63
2021/09/02 16:22:01;;;;;;;3.85;1.55;;;23.30;55.80;;;;;;5098359;28;20063;-64
2021/09/02 16:24:26;;;;;;;2.83;1.65;;;23.30;55.70;;;;;;5098237;28;20055;-64
2021/09/02 16:26:52;;;;;;;2.60;1.65;;;23.30;55.90;;;;;;5098224;28;20032;-64
2021/09/02 16:29:18;;;;;;;2.50;1.40;;;23.30;55.80;;;;;;5097969;28;20352;-65
2021/09/02 16:31:43;;;;;;;2.78;1.50;;;23.30;55.90;;;;;;5097956;28;20028;-64
2021/09/02 16:34:09;;;;;;;3.65;1.40;;;23.30;55.90;;;;;;5097878;28;20453;-65
2021/09/02 16:36:36;;;;;;;2.80;1.70;;;23.30;55.90;;;;;;5097970;28;20031;-64
2021/09/02 16:39:02;;;;;;;2.38;1.60;;;23.30;56.00;;;;;;5097855;28;20035;-64
2021/09/02 16:41:28;;;;;;;2.40;1.50;;;23.30;56.10;;;;;;5097971;28;20028;-64
2021/09/02 16:43:53;;;;;;;2.50;1.50;;;23.30;56.10;;;;;;5097951;28;20158;-64
2021/09/02 16:46:24;;;;;;;2.28;1.23;;;23.30;56.90;;;;;;5097903;28;20020;-64
2021/09/02 16:48:50;;;;;;;2.67;1.48;;;23.20;56.10;;;;;;5097671;28;20063;-64
2021/09/02 16:51:16;;;;;;;3.22;1.50;;;23.30;56.30;;;;;;5097953;28;20028;-63
2021/09/02 16:53:42;;;;;;;3.15;1.95;;;23.20;56.30;;;;;;5097513;28;20360;-64
2021/09/02 16:56:07;;;;;;;2.45;1.42;;;23.20;56.50;;;;;;5097781;28;20077;-64
2021/09/02 16:58:33;;;;;;;2.38;1.38;;;23.20;56.40;;;;;;5097791;28;20032;-65
2021/09/02 17:00:59;;;;;;;2.40;1.30;;;23.20;56.60;;;;;;5097536;28;20020;-66
2021/09/02 17:03:24;;;;;;;3.80;1.50;;;23.20;56.60;;;;;;5097727;28;20056;-64
2021/09/02 17:05:50;;;;;;;2.70;1.60;;;23.20;56.60;;;;;;5097600;28;20035;-65
2021/09/02 17:08:16;;;;;;;2.30;1.40;;;23.20;56.70;;;;;;5097187;28;20095;-65
2021/09/02 17:10:42;;;;;;;3.55;1.77;;;23.20;56.80;;;;;;5097309;28;20326;-64
2021/09/02 17:13:07;;;;;;;2.35;1.33;;;23.10;56.70;;;;;;5097703;28;20024;-64
2021/09/02 17:15:33;;;;;;;2.38;1.35;;;23.20;56.90;;;;;;5097274;28;20024;-65
2021/09/02 17:17:59;;;;;;;2.63;1.50;;;23.20;56.90;;;;;;5097494;28;20031;-66
2021/09/02 17:20:25;;;;;;;2.20;1.30;;;23.10;57.50;;;;;;5097324;28;20321;-64
2021/09/02 17:22:50;;;;;;;3.05;1.23;;;23.10;57.00;;;;;;5097092;28;20028;-63
2021/09/02 17:25:17;;;;;;;2.70;1.55;;;23.10;56.90;;;;;;5097247;28;20024;-64
2021/09/02 17:27:44;;;;;;;2.35;1.30;;;23.10;57.10;;;;;;5097280;28;20038;-64
2021/09/02 17:30:10;;;;;;;2.55;1.50;;;23.10;57.10;;;;;;5096448;28;20028;-64
2021/09/02 17:32:36;;;;;;;2.42;1.40;;;23.10;57.10;;;;;;5096898;28;20348;-64
2021/09/02 17:35:01;;;;;;;2.92;1.52;;;23.10;57.20;;;;;;5095744;28;20044;-64
2021/09/02 17:37:27;;;;;;;2.55;1.45;;;23.10;57.20;;;;;;5097062;28;20020;-64
2021/09/02 17:39:54;;;;;;;3.25;1.60;;;23.00;57.20;;;;;;5097037;28;20452;-64
2021/09/02 17:42:19;;;;;;;2.95;1.48;;;23.10;57.30;;;;;;5096710;28;20036;-65
2021/09/02 17:44:45;;;;;;;2.88;1.40;;;23.00;57.40;;;;;;5096896;28;20020;-65
2021/09/02 17:47:11;;;;;;;2.10;1.10;;;23.00;57.40;;;;;;5096573;28;20016;-64
2021/09/02 17:49:37;;;;;;;2.40;1.42;;;23.00;57.50;;;;;;5096799;28;20044;-65
2021/09/02 17:52:06;;;;;;;2.15;1.20;;;23.00;57.60;;;;;;5096691;28;20035;-65
2021/09/02 17:54:33;;;;;;;2.47;1.20;;;22.90;57.60;;;;;;5096446;28;20463;-64
2021/09/02 17:56:59;;;;;;;2.25;1.40;;;23.00;57.70;;;;;;5096424;28;20043;-64
2021/09/02 17:59:24;;;;;;;2.50;1.40;;;23.00;57.80;;;;;;5096676;28;20032;-63
2021/09/02 18:01:52;;;;;;;2.50;1.48;;;22.90;57.70;;;;;;5096167;28;20032;-65
2021/09/02 18:04:17;;;;;;;2.72;1.42;;;22.90;57.80;;;;;;5096447;28;20525;-64
2021/09/02 18:06:43;;;;;;;2.33;1.27;;;22.90;57.90;;;;;;5096231;28;20024;-65
2021/09/02 18:09:09;;;;;;;2.28;1.15;;;22.90;57.90;;;;;;5096427;28;20052;-65
2021/09/02 18:11:34;;;;;;;2.25;1.17;;;22.90;58.00;;;;;;5096316;28;20099;-64
2021/09/02 18:14:00;;;;;;;2.70;1.20;;;22.90;57.90;;;;;;5096353;28;20024;-63
2021/09/02 18:16:26;;;;;;;2.63;1.35;;;22.80;58.10;;;;;;5096024;28;20017;-65
2021/09/02 18:18:51;;;;;;;2.38;1.20;;;22.80;58.00;;;;;;5094371;28;20020;-64
2021/09/02 18:21:17;;;;;;;2.40;1.20;;;22.80;58.20;;;;;;5096391;28;20024;-64
2021/09/02 18:23:43;;;;;;;2.60;1.45;;;22.80;58.20;;;;;;5095848;28;20028;-65
2021/09/02 18:26:08;;;;;;;2.25;1.25;;;22.80;58.20;;;;;;5096068;28;20066;-65
2021/09/02 18:28:34;;;;;;;2.67;1.30;;;22.80;58.20;;;;;;5096057;28;20023;-65
2021/09/02 18:31:00;;;;;;;2.63;1.35;;;22.70;58.20;;;;;;5094944;28;20077;-64
2021/09/02 18:33:25;;;;;;;2.30;1.33;;;22.70;58.20;;;;;;5095828;28;20345;-64
2021/09/02 18:35:51;;;;;;;3.80;1.67;;;22.70;58.40;;;;;;5095719;28;20100;-64
2021/09/02 18:38:16;;;;;;;2.85;1.52;;;22.70;58.40;;;;;;5095602;28;20051;-65
2021/09/02 18:40:45;;;;;;;2.70;1.52;;;22.70;58.40;;;;;;5095662;28;20168;-64
2021/09/02 18:43:12;;;;;;;2.63;1.50;;;22.70;58.50;;;;;;5095848;28;20043;-65
2021/09/02 18:45:38;;;;;;;2.45;1.25;;;22.70;58.60;;;;;;5095020;28;20039;-64
2021/09/02 18:48:04;;;;;;;2.90;1.80;;;22.60;58.50;;;;;;5095522;28;20020;-64
2021/09/02 18:50:30;;;;;;;2.58;1.58;;;22.60;58.60;;;;;;5095890;28;20028;-65
2021/09/02 18:52:56;;;;;;;3.03;1.55;;;22.60;58.70;;;;;;5095134;28;20352;-65
2021/09/02 18:55:22;;;;;;;3.45;1.40;;;22.60;58.80;;;;;;5095670;28;20099;-64
2021/09/02 18:57:47;;;;;;;2.30;1.40;;;22.60;58.80;;;;;;5095549;28;20039;-65
2021/09/02 19:00:15;;;;;;;2.60;1.27;;;22.50;58.80;;;;;;5095029;28;20024;-64
2021/09/02 19:02:40;;;;;;;2.35;1.38;;;22.50;58.80;;;;;;5095315;28;20107;-65
2021/09/02 19:05:08;;;;;;;3.33;1.67;;;22.50;58.80;;;;;;5095593;28;20476;-65
2021/09/02 19:07:37;;;;;;;2.30;1.30;;;22.50;58.90;;;;;;5095623;28;20101;-65
2021/09/02 19:10:03;;;;;;;2.50;1.63;;;22.50;59.00;;;;;;5095319;28;20449;-65
2021/09/02 19:12:28;;;;;;;2.55;1.52;;;22.50;59.00;;;;;;5095248;28;20035;-64
2021/09/02 19:14:54;;;;;;;2.50;1.40;;;22.50;59.00;;;;;;5094523;28;20024;-65
2021/09/02 19:17:21;;;;;;;2.08;1.15;;;22.50;59.10;;;;;;5095421;28;20403;-65
2021/09/02 19:19:48;;;;;;;2.47;1.50;;;22.40;59.00;;;;;;5095239;28;20099;-64
2021/09/02 19:22:15;;;;;;;2.28;1.30;;;22.40;59.00;;;;;;5095714;28;20199;-65
2021/09/02 19:24:42;;;;;;;2.40;1.30;;;22.40;59.20;;;;;;5095126;28;20103;-64
2021/09/02 19:27:09;;;;;;;2.92;1.20;;;22.40;59.20;;;;;;5095658;28;20062;-65
2021/09/02 19:29:46;;;;;;;3.10;1.20;;;22.40;59.20;;;;;;5095198;28;20096;-67
2021/09/02 19:32:12;;;;;;;2.53;1.50;;;22.40;59.20;;;;;;5095135;28;20558;-65
2021/09/02 19:34:39;;;;;;;2.60;1.33;;;22.30;59.30;;;;;;5093840;28;20491;-65
2021/09/02 19:37:05;;;;;;;2.08;1.20;;;22.30;59.40;;;;;;5094553;28;20031;-64
2021/09/02 19:39:33;;;;;;;2.20;1.30;;;22.30;59.50;;;;;;5095203;28;20221;-66
2021/09/02 19:41:59;;;;;;;3.15;1.27;;;22.30;59.50;;;;;;5095247;28;20035;-66
2021/09/02 19:44:24;;;;;;;2.05;1.10;;;22.30;59.50;;;;;;5094932;28;20032;-65
2021/09/02 19:46:50;;;;;;;2.08;1.17;;;22.30;59.60;;;;;;5095087;28;20024;-65
2021/09/02 19:49:16;;;;;;;2.80;1.40;;;22.20;59.70;;;;;;5094775;28;20024;-65
2021/09/02 19:51:42;;;;;;;2.85;1.60;;;22.20;59.60;;;;;;5094337;28;20024;-64
2021/09/02 19:54:07;;;;;;;2.03;1.10;;;22.20;59.70;;;;;;5095265;28;20462;-65
2021/09/02 19:56:36;;;;;;;2.05;1.20;;;22.20;59.80;;;;;;5095420;28;20043;-65
2021/09/02 19:59:02;;;;;;;2.00;1.02;;;22.20;59.80;;;;;;5093998;28;20456;-65
2021/09/02 20:01:28;;;;;;;1.85;1.13;;;22.20;59.90;;;;;;5094897;28;20452;-65
2021/09/02 20:04:13;;;;;;;2.35;1.50;;;22.10;59.90;;;;;;5094899;28;20055;-64
2021/09/02 20:06:46;;;;;;;2.25;1.23;;;22.10;59.90;;;;;;5094884;28;20464;-65
2021/09/02 20:09:11;;;;;;;2.22;1.40;;;22.10;60.00;;;;;;5094248;28;20029;-65
2021/09/02 20:11:37;;;;;;;2.83;1.20;;;22.10;60.00;;;;;;5094282;28;20017;-64
2021/09/02 20:14:03;;;;;;;2.00;1.10;;;22.10;60.10;;;;;;5094168;28;20024;-64
2021/09/02 20:16:34;;;;;;;2.00;1.10;;;22.10;60.20;;;;;;5094371;28;20052;-65
2021/09/02 20:19:00;;;;;;;2.15;1.20;;;22.10;60.20;;;;;;5095169;28;20024;-65
2021/09/02 20:21:26;;;;;;;2.00;1.10;;;22.00;60.20;;;;;;5094045;28;20432;-64